Time;durP1;ratioP1;P1;durP2;ratioP2;P2;SDS_P1;SDS_P2;PMS_P1;PMS_P2;Temp;Humidity;BMP_temperature;BMP_pressure;BME280_temperature;BME280_humidity;BME280_pressure;Samples;Min_cycle;Max_cycle;Signal;HPM_P1;HPM_P2
2021/01/20 00:01:47;;;;;;;;;;;8.20;99.90;;;;;;5015990;28;19897;-88
2021/01/20 00:04:13;;;;;;;;;;;8.20;99.90;;;;;;5014862;28;19925;-89
2021/01/20 00:06:38;;;;;;;;;;;8.10;99.90;;;;;;5014670;28;19909;-88
2021/01/20 00:09:04;;;;;;;;;;;8.10;99.90;;;;;;4995114;28;20001;-88
2021/01/20 00:11:29;;;;;;;;;;;8.10;99.90;;;;;;4994769;28;20270;-83
2021/01/20 00:13:55;;;;;;;;;;;8.00;99.90;;;;;;4989735;28;20332;-83
2021/01/20 00:16:21;;;;;;;;;;;8.10;99.90;;;;;;5015583;28;19910;-88
2021/01/20 00:18:46;;;;;;;;;;;8.10;99.90;;;;;;4998949;28;19921;-88
2021/01/20 00:21:12;;;;;;;;;;;8.10;99.90;;;;;;4997628;28;19960;-89
2021/01/20 00:23:37;;;;;;;;;;;8.00;99.90;;;;;;4992078;28;19932;-88
2021/01/20 00:26:03;;;;;;;;;;;8.10;99.90;;;;;;4990770;28;19956;-88
2021/01/20 00:28:28;;;;;;;;;;;8.10;99.90;;;;;;4990952;28;20385;-88
2021/01/20 00:30:56;;;;;;;;;;;8.00;99.90;;;;;;4995383;28;19913;-88
2021/01/20 00:33:23;;;;;;;;;;;8.00;99.90;;;;;;4991445;28;19997;-88
2021/01/20 00:35:48;;;;;;;;;;;8.00;99.90;;;;;;4993065;28;19932;-88
2021/01/20 00:38:14;;;;;;;;;;;8.00;99.90;;;;;;5009465;28;19909;-88
2021/01/20 00:40:39;;;;;;;;;;;7.90;99.90;;;;;;5008839;28;19910;-89
2021/01/20 00:43:05;;;;;;;;;;;7.90;99.90;;;;;;4976465;28;20286;-88
2021/01/20 00:45:30;;;;;;;;;;;7.90;99.90;;;;;;5006275;28;19936;-88
2021/01/20 00:47:56;;;;;;;;;;;7.90;99.90;;;;;;5015417;28;19977;-88
2021/01/20 00:50:21;;;;;;;;;;;7.90;99.90;;;;;;4992394;28;19920;-89
2021/01/20 00:52:47;;;;;;;;;;;7.90;99.90;;;;;;4995214;28;19932;-88
2021/01/20 00:55:14;;;;;;;;;;;7.90;99.90;;;;;;4991015;28;19917;-88
2021/01/20 00:57:41;;;;;;;;;;;7.90;99.90;;;;;;4989401;28;19912;-88
2021/01/20 01:00:07;;;;;;;;;;;7.80;99.90;;;;;;4988393;28;20047;-89
2021/01/20 01:02:34;;;;;;;;;;;7.80;99.90;;;;;;4994874;28;19913;-89
2021/01/20 01:04:59;;;;;;;;;;;7.80;99.90;;;;;;4993396;28;19940;-88
2021/01/20 01:07:25;;;;;;;;;;;7.80;99.90;;;;;;4991205;28;20359;-88
2021/01/20 01:09:50;;;;;;;;;;;7.80;99.90;;;;;;4993997;28;19909;-89
2021/01/20 01:12:16;;;;;;;;;;;7.70;99.90;;;;;;4994420;28;19972;-88
2021/01/20 01:14:41;;;;;;;;;;;7.70;99.90;;;;;;4988292;28;19914;-88
2021/01/20 01:17:07;;;;;;;;;;;7.70;99.90;;;;;;4994883;28;19916;-88
2021/01/20 01:19:32;;;;;;;;;;;7.70;99.90;;;;;;4989317;28;20334;-88
2021/01/20 01:21:58;;;;;;;;;;;7.70;99.90;;;;;;5012645;28;19917;-88
2021/01/20 01:24:23;;;;;;;;;;;7.70;99.90;;;;;;4990605;28;19917;-88
2021/01/20 01:26:49;;;;;;;;;;;7.70;99.90;;;;;;4995378;28;20347;-88
2021/01/20 01:29:14;;;;;;;;;;;7.60;99.90;;;;;;5014957;28;19917;-88
2021/01/20 01:31:40;;;;;;;;;;;7.60;99.90;;;;;;5012857;28;19959;-87
2021/01/20 01:34:05;;;;;;;;;;;7.60;99.90;;;;;;4992673;28;19909;-89
2021/01/20 01:36:31;;;;;;;;;;;7.60;99.90;;;;;;4994166;28;19921;-88
2021/01/20 01:38:56;;;;;;;;;;;7.60;99.90;;;;;;4994533;28;19909;-88
2021/01/20 01:41:22;;;;;;;;;;;7.60;99.90;;;;;;4996952;28;19913;-88
2021/01/20 01:43:47;;;;;;;;;;;7.60;99.90;;;;;;4995130;28;19932;-88
2021/01/20 01:46:13;;;;;;;;;;;7.60;99.90;;;;;;5008157;28;19910;-89
2021/01/20 01:48:38;;;;;;;;;;;7.60;99.90;;;;;;5008819;28;19914;-88
2021/01/20 01:51:04;;;;;;;;;;;7.60;99.90;;;;;;4992686;28;19910;-87
2021/01/20 01:53:29;;;;;;;;;;;7.60;99.90;;;;;;4993706;28;19909;-88
2021/01/20 01:55:55;;;;;;;;;;;7.60;99.90;;;;;;4993018;28;19920;-88
2021/01/20 01:58:20;;;;;;;;;;;7.60;99.90;;;;;;4993910;28;20007;-88
2021/01/20 02:00:46;;;;;;;;;;;7.60;99.90;;;;;;5011990;28;19913;-88
2021/01/20 02:03:11;;;;;;;;;;;7.50;99.90;;;;;;4983052;28;19999;-89
2021/01/20 02:05:37;;;;;;;;;;;7.50;99.90;;;;;;4992310;28;19971;-88
2021/01/20 02:08:03;;;;;;;;;;;7.50;99.90;;;;;;4992812;28;19959;-89
2021/01/20 02:10:28;;;;;;;;;;;7.50;99.90;;;;;;4995261;28;19909;-88
2021/01/20 02:13:06;;;;;;;;;;;7.50;99.90;;;;;;5027725;28;19909;-88
2021/01/20 02:15:36;;;;;;;;;;;7.50;99.90;;;;;;5009642;28;20288;-87
2021/01/20 02:18:03;;;;;;;;;;;7.50;99.90;;;;;;5011713;28;19909;-89
2021/01/20 02:20:44;;;;;;;;;;;7.40;99.90;;;;;;4992800;28;19922;-87
2021/01/20 02:23:15;;;;;;;;;;;7.40;99.90;;;;;;4993198;28;19916;-88
2021/01/20 02:25:59;;;;;;;;;;;7.40;99.90;;;;;;5010928;28;19918;-88
2021/01/20 02:28:26;;;;;;;;;;;7.40;99.90;;;;;;4993530;28;19909;-88
2021/01/20 02:30:52;;;;;;;;;;;7.30;99.90;;;;;;4994150;28;20007;-88
2021/01/20 02:33:20;;;;;;;;;;;7.40;99.90;;;;;;4991209;28;20385;-88
2021/01/20 02:35:46;;;;;;;;;;;7.30;99.90;;;;;;4990238;28;19917;-88
2021/01/20 02:38:12;;;;;;;;;;;7.30;99.90;;;;;;4983085;28;19971;-88
2021/01/20 02:40:37;;;;;;;;;;;7.40;99.90;;;;;;4973990;28;19918;-89
2021/01/20 02:43:03;;;;;;;;;;;7.30;99.90;;;;;;4994876;28;19992;-88
2021/01/20 02:45:28;;;;;;;;;;;7.30;99.90;;;;;;4995604;28;19917;-88
2021/01/20 02:47:54;;;;;;;;;;;7.40;99.90;;;;;;5001764;28;19910;-88
2021/01/20 02:50:20;;;;;;;;;;;7.40;99.90;;;;;;5015063;28;19913;-88
2021/01/20 02:52:51;;;;;;;;;;;7.40;99.90;;;;;;5015664;28;19960;-88
2021/01/20 02:55:18;;;;;;;;;;;7.40;99.90;;;;;;5006270;28;19897;-88
2021/01/20 02:57:44;;;;;;;;;;;7.40;99.90;;;;;;5011588;28;19914;-88
2021/01/20 03:00:10;;;;;;;;;;;7.40;99.90;;;;;;5007611;28;19996;-88
2021/01/20 03:02:37;;;;;;;;;;;7.40;99.90;;;;;;4991146;28;19913;-89
2021/01/20 03:05:02;;;;;;;;;;;7.40;99.90;;;;;;4996027;28;19913;-88
2021/01/20 03:07:29;;;;;;;;;;;7.40;99.90;;;;;;4997297;28;20370;-88
2021/01/20 03:09:55;;;;;;;;;;;7.40;99.90;;;;;;4993483;28;20362;-88
2021/01/20 03:12:26;;;;;;;;;;;7.40;99.90;;;;;;4997032;28;19916;-88
2021/01/20 03:14:52;;;;;;;;;;;7.40;99.90;;;;;;5015256;28;19916;-89
2021/01/20 03:17:18;;;;;;;;;;;7.30;99.90;;;;;;4997413;28;19910;-88
2021/01/20 03:19:43;;;;;;;;;;;7.20;99.90;;;;;;4983078;28;19957;-89
2021/01/20 03:22:09;;;;;;;;;;;7.20;99.90;;;;;;4976888;28;19910;-88
2021/01/20 03:24:34;;;;;;;;;;;7.20;99.90;;;;;;4973083;28;19917;-88
2021/01/20 03:27:00;;;;;;;;;;;7.10;99.90;;;;;;4977802;28;19910;-88
2021/01/20 03:29:25;;;;;;;;;;;7.10;99.90;;;;;;4976780;28;20009;-89
2021/01/20 03:31:50;;;;;;;;;;;7.20;99.90;;;;;;4992885;28;19914;-87
2021/01/20 03:34:16;;;;;;;;;;;7.20;99.90;;;;;;4991016;28;19917;-88
2021/01/20 03:36:41;;;;;;;;;;;7.20;99.90;;;;;;4977577;28;20410;-88
2021/01/20 03:39:07;;;;;;;;;;;7.20;99.90;;;;;;5003217;28;19897;-88
2021/01/20 03:41:32;;;;;;;;;;;7.20;99.90;;;;;;5012733;28;19944;-88
2021/01/20 03:43:58;;;;;;;;;;;7.20;99.90;;;;;;5003059;28;19922;-89
2021/01/20 03:46:23;;;;;;;;;;;7.20;99.90;;;;;;4969316;28;20274;-88
2021/01/20 03:48:49;;;;;;;;;;;7.20;99.90;;;;;;4978267;28;19921;-88
2021/01/20 03:51:14;;;;;;;;;;;7.20;99.90;;;;;;4980470;28;20273;-88
2021/01/20 03:53:40;;;;;;;;;;;7.20;99.90;;;;;;4974025;28;19915;-88
2021/01/20 03:56:05;;;;;;;;;;;7.20;99.90;;;;;;4977352;28;19933;-88
2021/01/20 03:58:31;;;;;;;;;;;7.20;99.90;;;;;;4933079;29;20382;-88
2021/01/20 04:00:56;;;;;;;;;;;7.20;99.90;;;;;;4917506;29;19914;-85
2021/01/20 04:03:22;;;;;;;;;;;7.30;99.90;;;;;;4914971;29;19950;-89
2021/01/20 04:05:47;;;;;;;;;;;7.20;99.90;;;;;;4918181;29;19950;-88
2021/01/20 04:08:13;;;;;;;;;;;7.30;99.90;;;;;;4917943;29;19939;-89
2021/01/20 04:10:38;;;;;;;;;;;7.30;99.90;;;;;;4933915;29;19911;-89
2021/01/20 04:13:04;;;;;;;;;;;7.30;99.90;;;;;;4903912;29;19930;-88
2021/01/20 04:15:29;;;;;;;;;;;7.30;99.90;;;;;;4917664;29;19919;-88
2021/01/20 04:17:54;;;;;;;;;;;7.30;99.90;;;;;;4927876;29;19914;-88
2021/01/20 04:20:20;;;;;;;;;;;7.30;99.90;;;;;;4932939;29;20426;-88
2021/01/20 04:22:45;;;;;;;;;;;7.30;99.90;;;;;;4943655;29;19907;-88
2021/01/20 04:25:11;;;;;;;;;;;7.30;99.90;;;;;;4951522;28;19923;-88
2021/01/20 04:27:37;;;;;;;;;;;7.30;99.90;;;;;;4943107;28;19918;-88
2021/01/20 04:30:03;;;;;;;;;;;7.30;99.90;;;;;;4978084;28;19917;-88
2021/01/20 04:32:29;;;;;;;;;;;7.30;99.90;;;;;;4993102;28;20358;-88
2021/01/20 04:34:54;;;;;;;;;;;7.30;99.90;;;;;;4995455;28;19917;-88
2021/01/20 04:37:20;;;;;;;;;;;7.20;99.90;;;;;;5013812;28;19898;-88
2021/01/20 04:39:45;;;;;;;;;;;7.20;99.90;;;;;;5012187;28;19925;-89
2021/01/20 04:42:11;;;;;;;;;;;7.20;99.90;;;;;;5018435;28;20957;-88
2021/01/20 04:44:37;;;;;;;;;;;7.20;99.90;;;;;;5018508;28;19921;-88
2021/01/20 04:47:03;;;;;;;;;;;7.30;99.90;;;;;;4979406;28;20310;-88
2021/01/20 04:49:28;;;;;;;;;;;7.20;99.90;;;;;;4952055;28;19914;-88
2021/01/20 04:51:55;;;;;;;;;;;7.30;99.90;;;;;;4955819;28;19910;-88
2021/01/20 04:54:21;;;;;;;;;;;7.30;99.90;;;;;;4973694;28;19957;-88
2021/01/20 04:56:46;;;;;;;;;;;7.30;99.90;;;;;;4973212;28;19909;-88
2021/01/20 04:59:12;;;;;;;;;;;7.30;99.90;;;;;;4971946;28;20001;-88
2021/01/20 05:01:38;;;;;;;;;;;7.30;99.90;;;;;;4972656;28;19910;-88
2021/01/20 05:04:03;;;;;;;;;;;7.20;99.90;;;;;;4957196;28;19918;-88
2021/01/20 05:06:29;;;;;;;;;;;7.30;99.90;;;;;;4962421;28;19910;-88
2021/01/20 05:08:55;;;;;;;;;;;7.20;99.90;;;;;;4979229;28;19918;-88
2021/01/20 05:11:41;;;;;;;;;;;7.20;99.90;;;;;;4965650;28;19918;-89
2021/01/20 05:14:11;;;;;;;;;;;7.30;99.90;;;;;;4971380;28;19949;-89
2021/01/20 05:16:36;;;;;;;;;;;7.30;99.90;;;;;;4955434;28;20347;-88
2021/01/20 05:19:02;;;;;;;;;;;7.30;99.90;;;;;;5006618;28;19968;-89
2021/01/20 05:21:28;;;;;;;;;;;7.30;99.90;;;;;;4994508;28;19917;-88
2021/01/20 05:23:54;;;;;;;;;;;7.30;99.90;;;;;;4994861;28;19917;-88
2021/01/20 05:26:19;;;;;;;;;;;7.30;99.90;;;;;;4996318;28;19909;-88
2021/01/20 05:28:45;;;;;;;;;;;7.30;99.90;;;;;;4987934;28;19909;-89
2021/01/20 05:31:24;;;;;;;;;;;7.30;99.90;;;;;;4995380;28;19973;-87
2021/01/20 05:33:49;;;;;;;;;;;7.30;99.90;;;;;;4995583;28;19960;-87
2021/01/20 05:36:15;;;;;;;;;;;7.30;99.90;;;;;;4994325;28;19909;-88
2021/01/20 05:38:45;;;;;;;;;;;7.30;99.90;;;;;;4993021;28;20345;-87
2021/01/20 05:41:17;;;;;;;;;;;7.30;99.90;;;;;;4994283;28;20394;-89
2021/01/20 05:43:43;;;;;;;;;;;7.30;99.90;;;;;;4988491;28;20005;-87
2021/01/20 05:46:12;;;;;;;;;;;7.30;99.90;;;;;;4997915;28;19920;-88
2021/01/20 05:48:47;;;;;;;;;;;7.30;99.90;;;;;;4991981;28;19917;-88
2021/01/20 05:51:13;;;;;;;;;;;7.30;99.90;;;;;;4991845;28;19945;-87
2021/01/20 05:53:49;;;;;;;;;;;7.30;99.90;;;;;;5003725;28;19933;-87
2021/01/20 05:56:15;;;;;;;;;;;7.30;99.90;;;;;;5013403;28;19909;-88
2021/01/20 05:58:41;;;;;;;;;;;7.30;99.90;;;;;;4991106;28;19980;-87
2021/01/20 06:01:09;;;;;;;;;;;7.30;99.90;;;;;;5012841;28;19953;-87
2021/01/20 06:03:35;;;;;;;;;;;7.30;99.90;;;;;;4991341;28;20301;-88
2021/01/20 06:06:02;;;;;;;;;;;7.30;99.90;;;;;;5009576;28;19917;-87
2021/01/20 06:08:30;;;;;;;;;;;7.30;99.90;;;;;;5016623;28;19909;-88
2021/01/20 06:10:55;;;;;;;;;;;7.40;99.90;;;;;;4997189;28;19959;-88
2021/01/20 06:13:21;;;;;;;;;;;7.30;99.90;;;;;;5019531;28;19917;-87
2021/01/20 06:15:49;;;;;;;;;;;7.40;99.90;;;;;;5018564;28;19919;-87
2021/01/20 06:18:15;;;;;;;;;;;7.40;99.90;;;;;;4998620;28;19910;-87
2021/01/20 06:20:40;;;;;;;;;;;7.40;99.90;;;;;;4997274;28;19918;-88
2021/01/20 06:23:06;;;;;;;;;;;7.40;99.90;;;;;;5009568;28;19918;-87
2021/01/20 06:25:32;;;;;;;;;;;7.40;99.90;;;;;;4997896;28;19921;-87
2021/01/20 06:28:06;;;;;;;;;;;7.40;99.90;;;;;;4980151;28;20446;-88
2021/01/20 06:30:36;;;;;;;;;;;7.40;99.90;;;;;;4992714;28;19941;-87
2021/01/20 06:33:06;;;;;;;;;;;7.40;99.90;;;;;;4992401;28;19905;-87
2021/01/20 06:35:36;;;;;;;;;;;7.40;99.90;;;;;;5012868;28;19968;-88
2021/01/20 06:38:02;;;;;;;;;;;7.40;99.90;;;;;;5011019;28;19913;-87
2021/01/20 06:40:27;;;;;;;;;;;7.40;99.90;;;;;;4999017;28;19921;-87
2021/01/20 06:42:53;;;;;;;;;;;7.50;99.90;;;;;;4993113;28;19920;-88
2021/01/20 06:45:19;;;;;;;;;;;7.50;99.90;;;;;;4997280;28;19967;-87
2021/01/20 06:48:06;;;;;;;;;;;7.40;99.90;;;;;;5014355;28;19909;-87
2021/01/20 06:50:33;;;;;;;;;;;7.50;99.90;;;;;;5013974;28;20705;-87
2021/01/20 06:53:07;;;;;;;;;;;7.50;99.90;;;;;;5023403;28;19960;-88
2021/01/20 06:55:37;;;;;;;;;;;7.50;99.90;;;;;;4998206;28;20012;-87
2021/01/20 06:58:24;;;;;;;;;;;7.50;99.90;;;;;;5009783;28;19949;-88
2021/01/20 07:00:58;;;;;;;;;;;7.60;99.90;;;;;;4954149;28;20328;-82
2021/01/20 07:03:42;;;;;;;;;;;7.50;99.90;;;;;;4940169;28;19929;-81
2021/01/20 07:06:26;;;;;;;;;;;7.50;99.90;;;;;;4941586;29;19922;-87
2021/01/20 07:08:55;;;;;;;;;;;7.60;99.90;;;;;;4949272;28;19918;-86
2021/01/20 07:11:20;;;;;;;;;;;7.60;99.90;;;;;;4943507;29;20082;-87
2021/01/20 07:13:47;;;;;;;;;;;7.60;99.90;;;;;;4959935;28;19922;-87
2021/01/20 07:16:12;;;;;;;;;;;7.60;99.90;;;;;;4945887;29;19915;-86
2021/01/20 07:18:42;;;;;;;;;;;7.70;99.90;;;;;;4947326;29;19969;-86
2021/01/20 07:21:08;;;;;;;;;;;7.70;99.90;;;;;;4950921;28;20006;-87
2021/01/20 07:23:37;;;;;;;;;;;7.70;99.90;;;;;;4939836;28;19914;-87
2021/01/20 07:26:03;;;;;;;;;;;7.70;99.90;;;;;;4942631;29;19926;-88
2021/01/20 07:28:31;;;;;;;;;;;7.70;99.90;;;;;;4938833;29;19923;-87
2021/01/20 07:31:14;;;;;;;;;;;7.70;99.90;;;;;;4946657;28;19910;-87
2021/01/20 07:33:50;;;;;;;;;;;7.80;99.90;;;;;;4987805;28;19932;-87
2021/01/20 07:36:16;;;;;;;;;;;7.80;99.90;;;;;;4996757;28;19945;-87
2021/01/20 07:38:45;;;;;;;;;;;7.80;99.90;;;;;;4995092;28;19925;-88
2021/01/20 07:41:13;;;;;;;;;;;7.90;99.90;;;;;;4997902;28;20016;-87
2021/01/20 07:43:39;;;;;;;;;;;7.90;99.90;;;;;;4997344;28;20122;-87
2021/01/20 07:46:12;;;;;;;;;;;7.90;99.90;;;;;;4989053;28;20355;-88
2021/01/20 07:48:37;;;;;;;;;;;8.00;99.90;;;;;;5020780;28;19913;-87
2021/01/20 07:51:03;;;;;;;;;;;8.00;99.90;;;;;;4998191;28;19917;-87
2021/01/20 07:53:29;;;;;;;;;;;8.00;99.90;;;;;;4986397;28;20409;-87
2021/01/20 07:55:55;;;;;;;;;;;8.10;99.90;;;;;;4985614;28;19999;-88
2021/01/20 07:58:29;;;;;;;;;;;8.10;99.90;;;;;;4964598;28;19933;-87
2021/01/20 08:00:54;;;;;;;;;;;8.10;99.90;;;;;;4972965;28;19902;-87
2021/01/20 08:03:40;;;;;;;;;;;8.20;99.90;;;;;;4965068;28;19938;-87
2021/01/20 08:06:10;;;;;;;;;;;8.20;99.90;;;;;;4939739;28;19938;-89
2021/01/20 08:08:48;;;;;;;;;;;8.20;99.90;;;;;;4956214;28;21441;-90
2021/01/20 08:11:14;;;;;;;;;;;8.30;99.90;;;;;;4952155;28;19910;-82
2021/01/20 08:13:39;;;;;;;;;;;8.40;99.90;;;;;;4930441;29;19917;-83
2021/01/20 08:16:07;;;;;;;;;;;8.30;99.90;;;;;;4952408;28;20276;-88
2021/01/20 08:18:33;;;;;;;;;;;8.40;99.90;;;;;;4956097;28;19946;-88
2021/01/20 08:20:59;;;;;;;;;;;8.50;99.90;;;;;;4968628;28;19980;-88
2021/01/20 08:23:43;;;;;;;;;;;8.50;99.90;;;;;;4969950;28;19911;-88
2021/01/20 08:26:09;;;;;;;;;;;8.50;99.90;;;;;;4972284;28;19926;-89
2021/01/20 08:28:34;;;;;;;;;;;8.60;99.90;;;;;;4980494;28;19925;-90
2021/01/20 08:31:20;;;;;;;;;;;8.60;99.90;;;;;;4985767;28;19918;-90
2021/01/20 08:33:46;;;;;;;;;;;8.70;99.90;;;;;;4977227;28;19941;-89
2021/01/20 08:36:21;;;;;;;;;;;8.70;99.90;;;;;;5000776;28;19917;-88
2021/01/20 08:38:46;;;;;;;;;;;8.70;99.90;;;;;;5008941;28;19936;-87
2021/01/20 08:41:12;;;;;;;;;;;8.80;99.90;;;;;;5011479;28;19909;-89
2021/01/20 08:43:38;;;;;;;;;;;8.80;99.90;;;;;;5014585;28;19920;-87
2021/01/20 08:46:23;;;;;;;;;;;8.80;99.90;;;;;;5030047;28;19929;-89
2021/01/20 08:48:56;;;;;;;;;;;8.80;99.90;;;;;;5016881;28;20347;-89
2021/01/20 08:51:22;;;;;;;;;;;8.90;99.90;;;;;;5008041;28;19988;-88
2021/01/20 08:53:48;;;;;;;;;;;8.90;99.90;;;;;;5011195;28;20378;-89
2021/01/20 08:56:23;;;;;;;;;;;9.00;99.90;;;;;;5014126;28;19941;-89
2021/01/20 08:58:53;;;;;;;;;;;8.90;99.90;;;;;;5006246;28;19917;-88
2021/01/20 09:01:27;;;;;;;;;;;9.00;99.90;;;;;;5020681;28;19924;-89
2021/01/20 09:03:53;;;;;;;;;;;9.00;99.90;;;;;;4970327;28;19914;-88
2021/01/20 09:06:19;;;;;;;;;;;9.00;99.90;;;;;;4976203;28;19913;-88
2021/01/20 09:08:44;;;;;;;;;;;9.00;99.90;;;;;;4976888;28;20001;-88
2021/01/20 09:11:11;;;;;;;;;;;9.00;99.90;;;;;;4991870;28;19905;-88
2021/01/20 09:13:36;;;;;;;;;;;9.00;99.90;;;;;;4963775;28;20370;-88
2021/01/20 09:16:02;;;;;;;;;;;9.00;99.90;;;;;;4981794;28;19910;-88
2021/01/20 09:18:28;;;;;;;;;;;9.00;99.90;;;;;;4931080;29;19925;-89
2021/01/20 09:20:54;;;;;;;;;;;9.00;99.90;;;;;;4931153;29;19951;-89
2021/01/20 09:23:21;;;;;;;;;;;9.10;99.90;;;;;;4914613;29;19919;-88
2021/01/20 09:25:47;;;;;;;;;;;9.10;99.90;;;;;;4921098;29;19982;-89
2021/01/20 09:28:12;;;;;;;;;;;9.10;99.90;;;;;;4944088;28;19911;-88
2021/01/20 09:30:38;;;;;;;;;;;9.10;99.90;;;;;;5167333;23;21297;-90
2021/01/20 09:33:05;;;;;;;;;;;9.20;99.90;;;;;;5008272;28;19983;-88
2021/01/20 09:35:30;;;;;;;;;;;9.20;99.90;;;;;;5013654;28;20350;-89
2021/01/20 09:37:56;;;;;;;;;;;9.20;99.90;;;;;;5011331;28;19916;-89
2021/01/20 09:40:23;;;;;;;;;;;9.20;99.90;;;;;;5008381;28;19909;-87
2021/01/20 09:42:52;;;;;;;;;;;9.20;99.90;;;;;;5007812;28;19910;-87
2021/01/20 09:45:20;;;;;;;;;;;9.10;99.90;;;;;;5003420;28;19992;-89
2021/01/20 09:47:46;;;;;;;;;;;9.20;99.90;;;;;;5021119;28;19952;-88
2021/01/20 09:50:14;;;;;;;;;;;9.20;99.90;;;;;;5025267;28;19899;-88
2021/01/20 09:52:39;;;;;;;;;;;9.20;99.90;;;;;;5016382;28;19909;-88
2021/01/20 09:55:05;;;;;;;;;;;9.20;99.90;;;;;;5019644;28;19912;-88
2021/01/20 09:57:31;;;;;;;;;;;9.20;99.90;;;;;;5030781;28;19973;-89
2021/01/20 09:59:58;;;;;;;;;;;9.30;99.90;;;;;;5024693;28;19901;-88
2021/01/20 10:02:24;;;;;;;;;;;9.40;99.90;;;;;;5021923;28;19941;-88
2021/01/20 10:04:49;;;;;;;;;;;9.40;99.90;;;;;;5011214;28;19930;-88
2021/01/20 10:07:17;;;;;;;;;;;9.40;99.90;;;;;;5030490;28;19953;-87
2021/01/20 10:09:42;;;;;;;;;;;9.40;99.90;;;;;;5007651;28;19997;-88
2021/01/20 10:12:09;;;;;;;;;;;9.50;99.90;;;;;;5025318;28;19957;-88
2021/01/20 10:14:34;;;;;;;;;;;9.40;99.90;;;;;;5006853;28;19902;-89
2021/01/20 10:17:04;;;;;;;;;;;9.50;99.90;;;;;;4984286;28;20015;-87
2021/01/20 10:19:30;;;;;;;;;;;9.50;99.90;;;;;;5005664;28;20400;-87
2021/01/20 10:21:55;;;;;;;;;;;9.60;99.90;;;;;;4991261;28;19937;-88
2021/01/20 10:24:21;;;;;;;;;;;9.70;99.90;;;;;;5005566;28;19992;-87
2021/01/20 10:26:46;;;;;;;;;;;9.60;99.90;;;;;;5006264;28;19917;-87
2021/01/20 10:29:12;;;;;;;;;;;9.70;99.90;;;;;;5007065;28;19909;-87
2021/01/20 10:31:39;;;;;;;;;;;9.70;99.90;;;;;;5003565;28;19921;-88
2021/01/20 10:34:05;;;;;;;;;;;9.70;99.90;;;;;;4989299;28;19910;-87
2021/01/20 10:36:31;;;;;;;;;;;9.80;99.90;;;;;;4994789;28;19917;-88
2021/01/20 10:38:57;;;;;;;;;;;9.70;99.90;;;;;;4982716;28;19933;-88
2021/01/20 10:41:23;;;;;;;;;;;9.80;99.90;;;;;;4974969;28;19909;-88
2021/01/20 10:43:49;;;;;;;;;;;9.80;99.90;;;;;;4973486;28;19918;-89
2021/01/20 10:46:14;;;;;;;;;;;9.80;99.90;;;;;;4980599;28;19925;-90
2021/01/20 10:48:40;;;;;;;;;;;9.80;99.90;;;;;;4984462;28;19984;-89
2021/01/20 10:51:05;;;;;;;;;;;9.80;99.90;;;;;;4984706;28;19909;-88
2021/01/20 10:53:31;;;;;;;;;;;9.80;99.90;;;;;;4986161;28;19962;-88
2021/01/20 10:55:57;;;;;;;;;;;9.80;99.90;;;;;;4981560;28;19910;-89
2021/01/20 10:58:22;;;;;;;;;;;9.80;99.90;;;;;;4981757;28;19937;-90
2021/01/20 11:00:51;;;;;;;;;;;9.80;99.90;;;;;;4993288;28;19932;-88
2021/01/20 11:03:16;;;;;;;;;;;9.80;99.90;;;;;;4997010;28;19917;-90
2021/01/20 11:05:43;;;;;;;;;;;9.80;99.90;;;;;;5016915;28;19939;-89
2021/01/20 11:08:08;;;;;;;;;;;9.80;99.90;;;;;;5019415;28;19961;-89
2021/01/20 11:10:35;;;;;;;;;;;9.80;99.90;;;;;;5017431;28;19915;-88
2021/01/20 11:13:07;;;;;;;;;;;9.90;99.90;;;;;;5018947;28;19933;-91
2021/01/20 11:15:45;;;;;;;;;;;10.00;99.90;;;;;;5025473;28;19969;-90
2021/01/20 11:18:11;;;;;;;;;;;10.00;99.90;;;;;;5004877;28;19922;-89
2021/01/20 11:20:37;;;;;;;;;;;10.00;99.90;;;;;;4989469;28;19905;-89
2021/01/20 11:23:03;;;;;;;;;;;10.10;99.90;;;;;;4997465;28;19977;-90
2021/01/20 11:25:29;;;;;;;;;;;10.10;99.90;;;;;;5004821;28;19940;-88
2021/01/20 11:27:55;;;;;;;;;;;10.20;99.90;;;;;;4977533;28;19905;-88
2021/01/20 11:30:20;;;;;;;;;;;10.40;99.90;;;;;;4969220;28;19930;-86
2021/01/20 11:32:46;;;;;;;;;;;10.50;99.90;;;;;;4983402;28;19930;-87
2021/01/20 11:35:13;;;;;;;;;;;10.50;99.90;;;;;;4984941;28;19972;-87
2021/01/20 11:37:39;;;;;;;;;;;10.30;99.90;;;;;;4991445;28;19910;-87
2021/01/20 11:40:05;;;;;;;;;;;10.30;99.90;;;;;;4984962;28;19910;-89
2021/01/20 11:42:34;;;;;;;;;;;10.20;99.90;;;;;;4980080;28;19952;-90
2021/01/20 11:45:00;;;;;;;;;;;10.20;99.90;;;;;;4988006;28;19928;-88
2021/01/20 11:47:27;;;;;;;;;;;10.20;99.90;;;;;;5001894;28;20309;-88
2021/01/20 11:49:53;;;;;;;;;;;10.20;99.90;;;;;;5013036;28;19948;-88
2021/01/20 11:52:19;;;;;;;;;;;10.20;99.90;;;;;;5023140;28;19909;-90
2021/01/20 11:54:45;;;;;;;;;;;10.30;99.90;;;;;;5027565;28;19916;-89
2021/01/20 11:57:12;;;;;;;;;;;10.30;99.90;;;;;;5027695;28;19910;-89
2021/01/20 11:59:37;;;;;;;;;;;10.30;99.90;;;;;;5033030;28;19916;-89
2021/01/20 12:02:03;;;;;;;;;;;10.40;99.90;;;;;;5026113;28;19928;-90
2021/01/20 12:04:29;;;;;;;;;;;10.50;99.90;;;;;;5050180;28;19921;-90
2021/01/20 12:06:55;;;;;;;;;;;11.30;99.90;;;;;;5028067;28;19983;-89
2021/01/20 12:09:20;;;;;;;;;;;11.60;99.90;;;;;;5026930;28;19909;-90
2021/01/20 12:11:46;;;;;;;;;;;11.60;99.90;;;;;;5026164;28;19901;-90
2021/01/20 12:14:13;;;;;;;;;;;11.60;99.90;;;;;;5021646;28;20318;-90
2021/01/20 12:16:39;;;;;;;;;;;12.10;99.90;;;;;;5019185;28;19923;-89
2021/01/20 12:19:04;;;;;;;;;;;12.40;99.90;;;;;;5015954;28;19909;-89
2021/01/20 12:21:30;;;;;;;;;;;12.40;99.90;;;;;;5022471;28;19917;-89
2021/01/20 12:23:55;;;;;;;;;;;12.50;99.90;;;;;;4997131;28;19952;-89
2021/01/20 12:26:21;;;;;;;;;;;12.50;99.90;;;;;;5011570;28;19934;-90
2021/01/20 12:28:46;;;;;;;;;;;12.50;99.90;;;;;;4999409;28;19910;-90
2021/01/20 12:31:12;;;;;;;;;;;12.40;99.90;;;;;;5005230;28;19917;-89
2021/01/20 12:33:38;;;;;;;;;;;12.20;99.90;;;;;;5003249;28;19917;-89
2021/01/20 12:36:05;;;;;;;;;;;12.10;99.90;;;;;;4998010;28;19933;-90
2021/01/20 12:38:31;;;;;;;;;;;12.20;99.90;;;;;;5012998;28;19977;-89
2021/01/20 12:40:56;;;;;;;;;;;12.30;99.90;;;;;;5014961;28;20386;-90
2021/01/20 12:43:22;;;;;;;;;;;12.30;99.90;;;;;;5071745;22;19920;-90
2021/01/20 12:45:47;;;;;;;;;;;12.20;99.90;;;;;;5045346;28;19953;-91
2021/01/20 12:48:13;;;;;;;;;;;12.30;99.90;;;;;;5032188;28;19917;-90
2021/01/20 12:50:38;;;;;;;;;;;12.40;99.90;;;;;;5045155;28;19920;-90
2021/01/20 12:53:04;;;;;;;;;;;12.70;99.90;;;;;;5026228;28;19924;-90
2021/01/20 12:55:31;;;;;;;;;;;12.80;99.90;;;;;;5017763;28;19909;-89
2021/01/20 12:57:57;;;;;;;;;;;13.00;99.90;;;;;;4996628;28;19993;-90
2021/01/20 13:00:22;;;;;;;;;;;13.20;99.90;;;;;;4976432;28;20007;-89
2021/01/20 13:02:49;;;;;;;;;;;13.40;99.90;;;;;;4977882;28;20450;-89
2021/01/20 13:05:15;;;;;;;;;;;13.60;99.90;;;;;;4990656;28;19937;-87
2021/01/20 13:07:40;;;;;;;;;;;13.50;99.90;;;;;;4981832;28;19910;-89
2021/01/20 13:10:06;;;;;;;;;;;13.70;99.90;;;;;;4983430;28;19961;-90
2021/01/20 13:12:32;;;;;;;;;;;13.80;99.90;;;;;;4994182;28;19917;-90
2021/01/20 13:14:57;;;;;;;;;;;13.80;99.90;;;;;;5009834;28;19939;-89
2021/01/20 13:17:23;;;;;;;;;;;13.50;99.90;;;;;;4989135;28;19960;-90
2021/01/20 13:19:48;;;;;;;;;;;13.60;99.90;;;;;;4973520;28;19916;-88
2021/01/20 13:22:14;;;;;;;;;;;13.50;99.90;;;;;;4958980;28;19958;-89
2021/01/20 13:24:39;;;;;;;;;;;13.10;99.90;;;;;;4971593;28;20037;-91
2021/01/20 13:27:06;;;;;;;;;;;12.90;99.90;;;;;;4971204;28;19914;-88
2021/01/20 13:29:31;;;;;;;;;;;12.70;99.90;;;;;;4979177;28;19913;-89
2021/01/20 13:31:57;;;;;;;;;;;12.50;99.90;;;;;;4981524;28;19908;-89
2021/01/20 13:34:23;;;;;;;;;;;12.30;99.90;;;;;;4987406;28;19921;-90
2021/01/20 13:36:48;;;;;;;;;;;12.20;99.90;;;;;;4974315;28;19921;-88
2021/01/20 13:39:14;;;;;;;;;;;12.20;99.90;;;;;;4956535;28;20004;-87
2021/01/20 13:41:39;;;;;;;;;;;12.10;99.90;;;;;;4931563;29;19915;-89
2021/01/20 13:44:05;;;;;;;;;;;12.00;99.90;;;;;;4936963;29;20006;-90
2021/01/20 13:46:30;;;;;;;;;;;12.00;99.90;;;;;;4937723;29;19910;-88
2021/01/20 13:48:56;;;;;;;;;;;11.90;99.90;;;;;;4960475;28;19922;-87
2021/01/20 13:51:21;;;;;;;;;;;11.90;99.90;;;;;;4958916;28;19914;-90
2021/01/20 13:53:47;;;;;;;;;;;11.90;99.90;;;;;;4953151;28;20043;-88
2021/01/20 13:56:12;;;;;;;;;;;11.90;99.90;;;;;;4956731;28;19993;-88
2021/01/20 13:58:38;;;;;;;;;;;11.80;99.90;;;;;;4972327;28;19912;-89
2021/01/20 14:01:03;;;;;;;;;;;11.80;99.90;;;;;;4974210;28;19917;-90
2021/01/20 14:03:29;;;;;;;;;;;11.80;99.90;;;;;;4959655;28;19964;-91
2021/01/20 14:05:56;;;;;;;;;;;11.80;99.90;;;;;;4975829;28;19968;-90
2021/01/20 14:08:22;;;;;;;;;;;11.80;99.90;;;;;;4993151;28;19974;-90
2021/01/20 14:10:47;;;;;;;;;;;11.80;99.90;;;;;;4968894;28;19918;-89
2021/01/20 14:13:13;;;;;;;;;;;11.80;99.90;;;;;;4980032;28;19917;-88
2021/01/20 14:15:38;;;;;;;;;;;11.70;99.90;;;;;;5009782;28;19957;-89
2021/01/20 14:18:04;;;;;;;;;;;11.70;99.90;;;;;;4990046;28;19913;-90
2021/01/20 14:20:30;;;;;;;;;;;11.60;99.90;;;;;;5025193;28;19921;-90
2021/01/20 14:22:56;;;;;;;;;;;11.60;99.90;;;;;;4999856;28;19918;-90
2021/01/20 14:25:22;;;;;;;;;;;11.60;99.90;;;;;;4990168;28;20035;-89